ASN logo
ASN Wikibase Occurrence # 224751
Last updated: 18 September 2020
This information is added by users of ASN. Neither ASN nor the Flight Safety Foundation are responsible for the completeness or correctness of this information. If you feel this information is incomplete or incorrect, you can submit corrected information.

Date:04-MAY-2019
Time:10:08 LT
Type:Silhouette image of generic PA46 model; specific model in this crash may look slightly different
Piper PA-46-350P Malibu Mirage
Owner/operator:Private
Registration: JA121C
C/n / msn: 4636356
Fatalities:Fatalities: 0 / Occupants: 5
Other fatalities:0
Aircraft damage: Minor
Location:Oshima Airport (OIM/RJTO) -   Japan
Phase: Landing
Nature:Private
Departure airport:Osaka-Yao Airport (RJOY)
Destination airport:Oshima Airport (OIM/RJTO)
Narrative:
A Piper PA-46-350P suffered overrun incident while landing on the runway 21 at Oshima Airport. There were no injuries among five occupants. The runway was closed until 10:30 LT next morning causing seven commercial flights to be cancelled. JTSB launched an investigation as a serious incident.
Oshima Airport has a single runway 03/21 with dimension 1800m x 45m (5940ft x 150ft).

METAR data at Oshima Airport (accident time 10:10 LT/01:10 UTC):
RJTO 040100Z 05009KT 9999 FEW009 BKN011 19/17 Q1018
RJTO 040200Z 04010KT 9999 FEW009 SCT012 BKN080 19/16 Q1017

Sources:

https://headlines.yahoo.co.jp/hl?a=20190504-00000025-asahi-soci
https://headlines.yahoo.co.jp/hl?a=20190504-00000069-kyodonews-soci
https://headlines.yahoo.co.jp/hl?a=20190504-00050124-yom-soci
https://www3.nhk.or.jp/news/html/20190504/k10011905381000.html?utm_int=news-social_contents_list-items_012
https://headlines.yahoo.co.jp/hl?a=20190505-00050119-yom-soci
https://headlines.yahoo.co.jp/hl?a=20190505-00000038-kyodonews-soci
______________
https://jtsb.mlit.go.jp/jtsb/aircraft/detail2.php?id=2240
https://www.jetphotos.com/photo/8274199 (photo)


Revision history:

Date/timeContributorUpdates
04-May-2019 15:51 isamuel Added
04-May-2019 16:12 RobertMB Updated [Source]
08-May-2019 18:06 isamuel Updated [Time, Source, Narrative]
09-May-2019 19:24 Iceman 29 Updated [Source, Embed code, Damage]

Corrections or additions? ... Edit this accident description